createdAt,value
2023-03-31T00:00:25.083Z,17.02
2023-03-31T00:02:53.985Z,17.00
2023-03-31T00:05:21.392Z,17.00
2023-03-31T00:07:48.559Z,17.06
2023-03-31T00:10:19.268Z,16.96
2023-03-31T00:12:46.455Z,17.01
2023-03-31T00:15:14.690Z,17.03
2023-03-31T00:17:43.478Z,17.05
2023-03-31T00:20:12.381Z,16.96
2023-03-31T00:22:46.689Z,17.01
2023-03-31T00:25:14.407Z,17.08
2023-03-31T00:27:44.050Z,17.11
2023-03-31T00:30:14.266Z,17.12
2023-03-31T00:32:41.615Z,17.11
2023-03-31T00:35:09.332Z,17.11
2023-03-31T00:37:36.337Z,17.13
2023-03-31T00:40:09.946Z,17.07
2023-03-31T00:42:41.305Z,17.02
2023-03-31T00:45:30.231Z,16.99
2023-03-31T00:48:05.908Z,17.03
2023-03-31T00:50:41.207Z,17.05
2023-03-31T00:53:14.424Z,17.06
2023-03-31T00:55:47.151Z,17.10
2023-03-31T00:58:20.039Z,17.17
2023-03-31T01:00:54.245Z,17.18
2023-03-31T01:03:25.142Z,17.21
2023-03-31T01:05:57.596Z,17.17
2023-03-31T01:08:27.783Z,17.06
2023-03-31T01:10:59.519Z,17.03
2023-03-31T01:13:27.508Z,17.05
2023-03-31T01:15:55.802Z,17.09
2023-03-31T01:18:24.195Z,17.12
2023-03-31T01:21:25.877Z,17.14
2023-03-31T01:24:35.651Z,17.11
2023-03-31T01:27:33.648Z,17.10
2023-03-31T01:30:53.079Z,17.12
2023-03-31T01:34:12.497Z,17.03
2023-03-31T01:37:37.687Z,16.98
2023-03-31T01:40:26.129Z,16.98
2023-03-31T01:43:03.054Z,16.93
2023-03-31T01:45:50.113Z,16.93
2023-03-31T01:48:23.574Z,16.97
2023-03-31T01:50:58.223Z,17.02
2023-03-31T01:53:35.938Z,17.04
2023-03-31T01:56:14.087Z,17.03
2023-03-31T01:58:49.282Z,17.03
2023-03-31T02:01:26.142Z,16.98
2023-03-31T02:03:58.220Z,16.99
2023-03-31T02:06:35.110Z,16.89
2023-03-31T02:09:08.787Z,16.93
2023-03-31T02:11:40.142Z,16.93
2023-03-31T02:14:14.112Z,16.93
2023-03-31T02:16:47.598Z,16.92
2023-03-31T02:19:19.179Z,16.91
2023-03-31T02:21:49.783Z,16.88
2023-03-31T02:24:21.841Z,16.81
2023-03-31T02:26:58.021Z,16.77
2023-03-31T02:29:25.221Z,16.78
2023-03-31T02:32:01.175Z,16.77
2023-03-31T02:34:28.251Z,16.73
2023-03-31T02:36:55.575Z,16.69
2023-03-31T02:39:28.061Z,16.68
2023-03-31T02:41:57.379Z,16.74
2023-03-31T02:44:25.105Z,16.74
2023-03-31T02:46:52.867Z,16.72
2023-03-31T02:49:21.609Z,16.75
2023-03-31T02:52:09.523Z,16.74
2023-03-31T02:55:01.812Z,16.76
2023-03-31T02:57:58.212Z,16.72
2023-03-31T03:00:41.266Z,16.73
2023-03-31T03:03:29.429Z,16.72
2023-03-31T03:06:13.565Z,16.67
2023-03-31T03:09:01.817Z,16.61
2023-03-31T03:11:39.342Z,16.58
2023-03-31T03:14:23.612Z,16.59
2023-03-31T03:16:59.838Z,16.50
2023-03-31T03:19:26.821Z,16.52
2023-03-31T03:21:54.495Z,16.49
2023-03-31T03:24:22.801Z,16.48
2023-03-31T03:26:49.725Z,16.48
2023-03-31T03:29:17.888Z,16.50
2023-03-31T03:31:44.826Z,16.52
2023-03-31T03:34:11.694Z,16.58
2023-03-31T03:36:39.676Z,16.59
2023-03-31T03:39:07.981Z,16.60
2023-03-31T03:41:36.157Z,16.62
2023-03-31T03:44:03.215Z,16.62
2023-03-31T03:46:31.594Z,16.57
2023-03-31T03:48:58.687Z,16.61
2023-03-31T03:51:25.694Z,16.65
2023-03-31T03:53:52.612Z,16.62
2023-03-31T03:56:19.601Z,16.61
2023-03-31T03:58:46.542Z,16.63
2023-03-31T04:01:14.270Z,16.61
2023-03-31T04:03:42.497Z,16.58
2023-03-31T04:06:09.613Z,16.59
2023-03-31T04:08:36.899Z,16.54
2023-03-31T04:11:09.736Z,16.42
2023-03-31T04:13:36.597Z,16.38
2023-03-31T04:16:03.859Z,16.41
2023-03-31T04:18:30.906Z,16.39
2023-03-31T04:21:04.831Z,16.37
2023-03-31T04:23:31.972Z,16.35
2023-03-31T04:25:59.292Z,16.34
2023-03-31T04:28:26.664Z,16.31
2023-03-31T04:30:58.864Z,16.33
2023-03-31T04:33:25.785Z,16.28
2023-03-31T04:35:52.836Z,16.26
2023-03-31T04:38:23.233Z,16.22
2023-03-31T04:40:52.685Z,16.22
2023-03-31T04:43:21.140Z,16.17
2023-03-31T04:45:48.073Z,16.17
2023-03-31T04:48:15.195Z,16.19
2023-03-31T04:50:42.440Z,16.18
2023-03-31T04:53:09.483Z,16.17
2023-03-31T04:55:37.707Z,16.21
2023-03-31T04:58:04.604Z,16.20
2023-03-31T05:00:31.480Z,16.21
2023-03-31T05:02:59.989Z,16.17
2023-03-31T05:05:27.281Z,16.14
2023-03-31T05:07:54.155Z,16.11
2023-03-31T05:10:21.663Z,16.07
2023-03-31T05:12:50.337Z,16.06
2023-03-31T05:15:17.539Z,16.04
2023-03-31T05:17:44.850Z,16.04
2023-03-31T05:20:13.545Z,16.00
2023-03-31T05:22:43.310Z,15.96
2023-03-31T05:25:14.435Z,15.94
2023-03-31T05:27:41.369Z,15.93
2023-03-31T05:30:10.930Z,15.90
2023-03-31T05:32:37.901Z,15.88
2023-03-31T05:35:05.930Z,15.91
2023-03-31T05:37:32.884Z,15.90
2023-03-31T05:39:59.947Z,15.86
2023-03-31T05:42:26.919Z,15.82
2023-03-31T05:44:53.792Z,15.81
2023-03-31T05:47:23.145Z,15.76
2023-03-31T05:49:50.901Z,15.74
2023-03-31T05:52:18.077Z,15.68
2023-03-31T05:54:45.185Z,15.67
2023-03-31T05:57:12.284Z,15.63
2023-03-31T05:59:40.787Z,15.63
2023-03-31T06:02:11.145Z,15.62
2023-03-31T06:04:39.752Z,15.65
2023-03-31T06:07:06.668Z,15.62
2023-03-31T06:09:33.531Z,15.55
2023-03-31T06:12:00.624Z,15.54
2023-03-31T06:14:28.058Z,15.57
2023-03-31T06:16:57.383Z,15.51
2023-03-31T06:19:24.838Z,15.45
2023-03-31T06:21:53.068Z,15.45
2023-03-31T06:24:19.912Z,15.45
2023-03-31T06:26:46.801Z,15.45
2023-03-31T06:29:13.711Z,15.42
2023-03-31T06:31:40.839Z,15.48
2023-03-31T06:34:07.907Z,15.53
2023-03-31T06:36:35.096Z,15.53
2023-03-31T06:39:03.639Z,15.54
2023-03-31T06:41:30.643Z,15.57
2023-03-31T06:43:57.542Z,15.57
2023-03-31T06:46:24.513Z,15.54
2023-03-31T06:48:51.472Z,15.57
2023-03-31T06:51:18.414Z,15.59
2023-03-31T06:53:45.272Z,15.60
2023-03-31T06:56:13.513Z,15.66
2023-03-31T06:58:40.456Z,15.71
2023-03-31T07:01:07.939Z,15.78
2023-03-31T07:03:35.480Z,15.74
2023-03-31T07:06:02.507Z,15.76
2023-03-31T07:08:29.459Z,15.81
2023-03-31T07:10:59.331Z,15.85
2023-03-31T07:13:28.704Z,15.88
2023-03-31T07:15:56.235Z,15.90
2023-03-31T07:18:25.982Z,15.92
2023-03-31T07:20:53.287Z,15.86
2023-03-31T07:23:21.077Z,15.89
2023-03-31T07:25:48.605Z,15.88
2023-03-31T07:28:16.290Z,15.97
2023-03-31T07:30:44.723Z,16.01
2023-03-31T07:33:11.664Z,16.03
2023-03-31T07:35:40.819Z,16.03
2023-03-31T07:38:09.788Z,16.11
2023-03-31T07:40:37.916Z,16.07
2023-03-31T07:43:05.898Z,16.11
2023-03-31T07:45:34.289Z,16.14
2023-03-31T07:48:03.051Z,16.14
2023-03-31T07:50:30.396Z,16.16
2023-03-31T07:52:57.827Z,16.22
2023-03-31T07:55:26.261Z,16.22
2023-03-31T07:57:53.594Z,16.23
2023-03-31T08:00:22.002Z,16.19
2023-03-31T08:02:50.095Z,16.16
2023-03-31T08:05:21.682Z,16.21
2023-03-31T08:07:50.643Z,16.26
2023-03-31T08:10:23.752Z,16.21
2023-03-31T08:12:50.765Z,16.19
2023-03-31T08:15:18.707Z,16.19
2023-03-31T08:17:45.901Z,16.25
2023-03-31T08:20:13.213Z,16.32
2023-03-31T08:22:41.712Z,16.34
2023-03-31T08:25:09.933Z,16.35
2023-03-31T08:27:40.018Z,16.42
2023-03-31T08:30:11.145Z,16.56
2023-03-31T08:32:38.737Z,16.71
2023-03-31T08:35:08.413Z,16.82
2023-03-31T08:37:35.721Z,16.89
2023-03-31T08:40:05.764Z,16.90
2023-03-31T08:42:42.060Z,16.83
2023-03-31T08:45:20.226Z,16.82
2023-03-31T08:47:52.043Z,16.88
2023-03-31T08:50:25.003Z,16.96
2023-03-31T08:53:03.910Z,16.98
2023-03-31T08:55:49.801Z,17.01
2023-03-31T08:58:32.321Z,17.12
2023-03-31T09:01:09.809Z,17.20
2023-03-31T09:03:51.908Z,17.10
2023-03-31T09:06:34.322Z,17.02
2023-03-31T09:09:08.154Z,17.03
2023-03-31T09:11:44.010Z,17.03
2023-03-31T09:14:30.414Z,16.93
2023-03-31T09:17:15.980Z,16.84
2023-03-31T09:19:50.785Z,16.78
2023-03-31T09:22:24.146Z,16.72
2023-03-31T09:24:59.100Z,16.73
2023-03-31T09:27:32.507Z,16.73
2023-03-31T09:30:05.334Z,17.35
2023-03-31T09:32:33.879Z,17.10
2023-03-31T09:35:16.140Z,17.05
2023-03-31T09:37:43.420Z,17.10
2023-03-31T09:40:18.038Z,17.11
2023-03-31T09:42:48.711Z,17.16
2023-03-31T09:45:18.029Z,17.17
2023-03-31T09:47:51.335Z,17.18
2023-03-31T09:50:19.043Z,17.18
2023-03-31T09:52:56.220Z,17.17
2023-03-31T09:55:40.200Z,17.10
2023-03-31T09:58:14.289Z,16.96
2023-03-31T10:01:01.700Z,16.95
2023-03-31T10:03:36.520Z,16.95
2023-03-31T10:06:11.043Z,17.06
2023-03-31T10:08:43.055Z,17.15
2023-03-31T10:11:12.856Z,17.32
2023-03-31T10:13:48.174Z,17.40
2023-03-31T10:16:23.887Z,17.45
2023-03-31T10:18:51.024Z,17.37
2023-03-31T10:21:23.983Z,17.26
2023-03-31T10:23:52.224Z,17.30
2023-03-31T10:26:24.110Z,17.17
2023-03-31T10:28:55.254Z,17.19
2023-03-31T10:31:34.586Z,17.30
2023-03-31T10:34:07.903Z,17.45
2023-03-31T10:36:36.084Z,17.51
2023-03-31T10:39:07.753Z,17.51
2023-03-31T10:41:35.798Z,17.47
2023-03-31T10:44:05.100Z,17.41
2023-03-31T10:46:47.136Z,17.39
2023-03-31T10:49:26.799Z,17.40
2023-03-31T10:51:56.468Z,17.47
2023-03-31T10:54:24.339Z,17.46
2023-03-31T10:56:56.444Z,17.43
2023-03-31T10:59:58.700Z,17.41
2023-03-31T11:02:57.367Z,17.40
2023-03-31T11:05:34.627Z,17.35
2023-03-31T11:08:27.147Z,17.40
2023-03-31T11:11:13.128Z,17.41
2023-03-31T11:13:51.297Z,17.45
2023-03-31T11:16:29.228Z,17.47
2023-03-31T11:19:17.007Z,17.51
2023-03-31T11:22:00.406Z,17.51
2023-03-31T11:24:51.435Z,17.48
2023-03-31T11:27:41.161Z,17.61
2023-03-31T11:30:20.583Z,17.74
2023-03-31T11:33:08.494Z,17.85
2023-03-31T11:35:59.523Z,18.13
2023-03-31T11:39:00.103Z,18.46
2023-03-31T11:41:34.926Z,18.99
2023-03-31T11:44:05.788Z,19.36
2023-03-31T11:46:41.390Z,19.73
2023-03-31T11:49:19.005Z,19.80
2023-03-31T11:51:54.653Z,19.79
2023-03-31T11:54:31.625Z,19.77
2023-03-31T11:57:10.368Z,19.78
2023-03-31T11:59:40.977Z,19.86
2023-03-31T12:02:20.012Z,19.89
2023-03-31T12:04:53.423Z,19.96
2023-03-31T12:07:29.443Z,20.07
2023-03-31T12:10:05.820Z,20.07
2023-03-31T12:12:43.770Z,20.04
2023-03-31T12:15:23.822Z,19.88
2023-03-31T12:18:00.833Z,19.53
2023-03-31T12:20:41.218Z,19.50
2023-03-31T12:23:18.816Z,19.45
2023-03-31T12:25:55.506Z,19.40
2023-03-31T12:28:27.393Z,19.43
2023-03-31T12:30:57.772Z,19.39
2023-03-31T12:33:31.336Z,19.30
2023-03-31T12:36:19.052Z,19.01
2023-03-31T12:39:01.150Z,18.96
2023-03-31T12:41:38.459Z,18.92
2023-03-31T12:44:30.809Z,18.86
2023-03-31T12:47:21.266Z,18.74
2023-03-31T12:50:16.280Z,18.56
2023-03-31T12:52:56.785Z,18.52
2023-03-31T12:55:37.813Z,18.67
2023-03-31T12:58:41.688Z,18.92
2023-03-31T13:01:16.520Z,19.18
2023-03-31T13:04:05.500Z,19.27
2023-03-31T13:06:56.221Z,19.09
2023-03-31T13:09:52.956Z,19.00
2023-03-31T13:12:25.370Z,19.12
2023-03-31T13:14:55.257Z,19.21
2023-03-31T13:17:29.536Z,19.28
2023-03-31T13:20:16.633Z,19.29
2023-03-31T13:22:48.331Z,19.35
2023-03-31T13:25:51.612Z,19.52
2023-03-31T13:28:42.267Z,19.63
2023-03-31T13:31:17.349Z,19.72
2023-03-31T13:33:57.981Z,19.67
2023-03-31T13:36:54.662Z,19.58
2023-03-31T13:40:06.618Z,19.47
2023-03-31T13:43:27.136Z,19.29
2023-03-31T13:46:45.302Z,19.01
2023-03-31T13:49:44.690Z,18.97
2023-03-31T13:52:12.775Z,18.90
2023-03-31T13:55:23.719Z,18.84
2023-03-31T13:58:34.612Z,18.85
2023-03-31T14:01:44.509Z,18.81
2023-03-31T14:04:35.835Z,18.85
2023-03-31T14:07:09.523Z,18.91
2023-03-31T14:09:46.962Z,18.99
2023-03-31T14:12:23.042Z,19.12
2023-03-31T14:14:54.919Z,19.22
2023-03-31T14:17:27.629Z,19.34
2023-03-31T14:20:18.616Z,19.49
2023-03-31T14:22:58.987Z,19.54
2023-03-31T14:25:44.149Z,19.88
2023-03-31T14:28:33.356Z,20.03
2023-03-31T14:31:20.285Z,20.12
2023-03-31T14:34:12.111Z,20.27
2023-03-31T14:36:51.103Z,20.62
2023-03-31T14:39:24.120Z,20.73
2023-03-31T14:41:53.507Z,20.83
2023-03-31T14:44:21.046Z,20.97
2023-03-31T14:46:51.030Z,21.23
2023-03-31T14:49:25.356Z,21.27
2023-03-31T14:51:54.227Z,21.43
2023-03-31T14:54:22.134Z,21.46
2023-03-31T14:56:54.769Z,21.29
2023-03-31T14:59:28.902Z,21.18
2023-03-31T15:01:59.783Z,21.18
2023-03-31T15:04:42.138Z,21.20
2023-03-31T15:07:11.894Z,21.15
2023-03-31T15:09:49.542Z,21.19
2023-03-31T15:12:20.553Z,21.16
2023-03-31T15:14:51.991Z,21.06
2023-03-31T15:17:25.494Z,21.01
2023-03-31T15:19:56.029Z,20.85
2023-03-31T15:22:25.961Z,20.43
2023-03-31T15:24:53.654Z,20.02
2023-03-31T15:27:38.019Z,19.73
2023-03-31T15:30:09.325Z,19.57
2023-03-31T15:32:39.891Z,19.47
2023-03-31T15:38:12.682Z,19.24
2023-03-31T15:40:43.918Z,19.19
2023-03-31T15:43:25.513Z,19.07
2023-03-31T15:45:54.520Z,19.01
2023-03-31T15:48:29.515Z,19.05
2023-03-31T15:51:01.300Z,19.07
2023-03-31T15:53:35.735Z,19.03
2023-03-31T15:56:03.797Z,18.93
2023-03-31T15:58:54.249Z,18.84
2023-03-31T16:01:23.835Z,18.78
2023-03-31T16:03:55.382Z,18.66
2023-03-31T16:06:37.857Z,18.63
2023-03-31T16:09:08.218Z,18.63
2023-03-31T16:11:42.221Z,18.65
2023-03-31T16:14:17.959Z,18.61
2023-03-31T16:16:55.090Z,18.56
2023-03-31T16:19:28.823Z,18.56
2023-03-31T16:22:01.957Z,18.55
2023-03-31T16:24:33.516Z,18.59
2023-03-31T16:27:06.133Z,18.52
2023-03-31T16:29:35.391Z,18.53
2023-03-31T16:32:12.190Z,18.53
2023-03-31T16:34:59.346Z,18.50
2023-03-31T16:37:26.839Z,18.51
2023-03-31T16:39:54.319Z,18.52
2023-03-31T16:42:21.839Z,18.44
2023-03-31T16:44:59.938Z,18.38
2023-03-31T16:47:36.554Z,18.30
2023-03-31T16:50:07.464Z,18.20
2023-03-31T16:52:36.956Z,18.18
2023-03-31T16:55:04.836Z,18.17
2023-03-31T16:57:32.199Z,18.15
2023-03-31T16:59:59.634Z,18.15
2023-03-31T17:02:26.784Z,18.15
2023-03-31T17:04:56.549Z,18.13
2023-03-31T17:07:27.678Z,18.10
2023-03-31T17:09:54.621Z,18.10
2023-03-31T17:12:21.742Z,18.08
2023-03-31T17:14:48.601Z,18.07
2023-03-31T17:17:17.802Z,18.08
2023-03-31T17:19:45.172Z,18.08
2023-03-31T17:22:12.587Z,18.09
2023-03-31T17:24:41.894Z,18.09
2023-03-31T17:27:08.791Z,18.04
2023-03-31T17:29:35.816Z,18.05
2023-03-31T17:32:02.866Z,18.04
2023-03-31T17:34:30.229Z,17.98
2023-03-31T17:36:57.272Z,17.95
2023-03-31T17:39:24.377Z,17.87
2023-03-31T17:41:52.794Z,17.82
2023-03-31T17:44:19.902Z,17.79
2023-03-31T17:46:46.963Z,17.77
2023-03-31T17:49:14.040Z,17.72
2023-03-31T17:51:40.926Z,17.63
2023-03-31T17:54:07.882Z,17.57
2023-03-31T17:56:34.748Z,17.55
2023-03-31T17:59:03.913Z,17.48
2023-03-31T18:01:30.985Z,17.42
2023-03-31T18:03:58.441Z,17.37
2023-03-31T18:06:27.688Z,17.34
2023-03-31T18:08:56.818Z,17.29
2023-03-31T18:11:23.767Z,17.24
2023-03-31T18:13:50.996Z,17.22
2023-03-31T18:16:19.844Z,17.24
2023-03-31T18:18:48.144Z,17.17
2023-03-31T18:21:15.380Z,17.19
2023-03-31T18:23:42.287Z,17.20
2023-03-31T18:26:11.919Z,17.21
2023-03-31T18:28:40.758Z,17.18
2023-03-31T18:31:09.163Z,17.16
2023-03-31T18:33:37.906Z,17.06
2023-03-31T18:36:05.907Z,17.02
2023-03-31T18:38:34.308Z,17.04
2023-03-31T18:41:01.672Z,16.92
2023-03-31T18:43:29.641Z,16.89
2023-03-31T18:45:58.664Z,16.89
2023-03-31T18:48:25.707Z,16.86
2023-03-31T18:50:54.198Z,16.84
2023-03-31T18:53:23.478Z,16.84
2023-03-31T18:55:51.916Z,16.80
2023-03-31T18:58:19.429Z,16.79
2023-03-31T19:00:46.472Z,16.75
2023-03-31T19:03:14.142Z,16.72
2023-03-31T19:05:41.556Z,16.73
2023-03-31T19:08:10.042Z,16.76
2023-03-31T19:10:37.157Z,16.78
2023-03-31T19:13:04.584Z,16.80
2023-03-31T19:15:33.062Z,16.81
2023-03-31T19:18:00.325Z,16.84
2023-03-31T19:20:27.689Z,16.62
2023-03-31T19:22:55.834Z,16.35
2023-03-31T19:25:30.827Z,16.16
2023-03-31T19:27:57.949Z,16.08
2023-03-31T19:30:25.136Z,15.95
2023-03-31T19:32:52.173Z,15.91
2023-03-31T19:35:20.622Z,15.91
2023-03-31T19:37:48.579Z,15.93
2023-03-31T19:40:15.789Z,15.94
2023-03-31T19:42:44.319Z,15.89
2023-03-31T19:45:11.606Z,15.86
2023-03-31T19:47:38.662Z,15.88
2023-03-31T19:50:08.340Z,15.93
2023-03-31T19:52:36.491Z,15.98
2023-03-31T19:55:04.941Z,15.97
2023-03-31T19:57:32.574Z,15.90
2023-03-31T20:00:02.666Z,15.79
2023-03-31T20:02:31.465Z,15.73
2023-03-31T20:04:58.564Z,15.72
2023-03-31T20:07:25.746Z,15.70
2023-03-31T20:09:52.921Z,15.72
2023-03-31T20:12:19.929Z,15.79
2023-03-31T20:14:47.479Z,15.79
2023-03-31T20:17:16.740Z,15.81
2023-03-31T20:19:44.869Z,15.84
2023-03-31T20:22:11.954Z,15.86
2023-03-31T20:24:38.812Z,15.84
2023-03-31T20:27:05.754Z,15.86
2023-03-31T20:29:32.826Z,15.89
2023-03-31T20:31:59.827Z,15.94
2023-03-31T20:34:28.335Z,15.93
2023-03-31T20:36:56.335Z,15.86
2023-03-31T20:39:23.235Z,15.82
2023-03-31T20:41:50.413Z,15.83
2023-03-31T20:44:17.355Z,15.86
2023-03-31T20:46:45.242Z,15.90
2023-03-31T20:49:13.015Z,15.92
2023-03-31T20:51:42.606Z,15.92
2023-03-31T20:54:10.005Z,15.97
2023-03-31T20:56:40.321Z,16.02
2023-03-31T20:59:10.975Z,16.06
2023-03-31T21:01:38.631Z,16.07
2023-03-31T21:04:08.764Z,16.09
2023-03-31T21:06:39.567Z,16.13
2023-03-31T21:09:08.943Z,16.15
2023-03-31T21:11:36.009Z,16.15
2023-03-31T21:14:03.319Z,16.16
2023-03-31T21:16:30.255Z,16.20
2023-03-31T21:18:59.642Z,16.23
2023-03-31T21:21:27.712Z,16.26
2023-03-31T21:23:55.396Z,16.27
2023-03-31T21:26:24.912Z,16.23
2023-03-31T21:28:56.446Z,16.18
2023-03-31T21:31:25.668Z,16.18
2023-03-31T21:33:57.339Z,16.19
2023-03-31T21:36:25.530Z,16.16
2023-03-31T21:38:55.573Z,16.12
2023-03-31T21:41:27.816Z,16.13
2023-03-31T21:43:55.485Z,16.16
2023-03-31T21:46:26.917Z,16.16
2023-03-31T21:48:55.096Z,16.15
2023-03-31T21:51:23.512Z,16.11
2023-03-31T21:53:54.945Z,16.12
2023-03-31T21:56:24.344Z,16.12
2023-03-31T21:58:51.606Z,16.09
2023-03-31T22:01:19.204Z,16.07
2023-03-31T22:03:46.972Z,16.02
2023-03-31T22:06:14.845Z,16.00
2023-03-31T22:08:41.770Z,15.99
2023-03-31T22:11:11.613Z,15.91
2023-03-31T22:13:40.878Z,15.88
2023-03-31T22:16:17.332Z,15.88
2023-03-31T22:18:45.244Z,15.89
2023-03-31T22:21:18.553Z,15.91
2023-03-31T22:23:45.917Z,15.90
2023-03-31T22:26:13.517Z,15.89
2023-03-31T22:28:41.912Z,15.91
2023-03-31T22:31:09.135Z,15.91
2023-03-31T22:33:36.151Z,15.89
2023-03-31T22:36:03.341Z,15.88
2023-03-31T22:38:30.410Z,15.87
2023-03-31T22:40:57.323Z,15.86
2023-03-31T22:43:24.600Z,15.84
2023-03-31T22:45:53.960Z,15.84
2023-03-31T22:48:21.016Z,15.84
2023-03-31T22:50:47.980Z,15.83
2023-03-31T22:53:14.843Z,15.84
2023-03-31T22:55:42.998Z,15.83
2023-03-31T22:58:21.410Z,15.83
2023-03-31T23:00:57.116Z,15.85
2023-03-31T23:03:24.382Z,15.87
2023-03-31T23:05:51.334Z,15.77
2023-03-31T23:08:18.397Z,15.64
2023-03-31T23:10:55.648Z,15.62
2023-03-31T23:13:22.580Z,15.65
2023-03-31T23:15:49.612Z,15.64
2023-03-31T23:18:18.225Z,15.67
2023-03-31T23:20:45.795Z,15.67
2023-03-31T23:23:12.708Z,15.68
2023-03-31T23:25:39.672Z,15.70
2023-03-31T23:28:07.118Z,15.75
2023-03-31T23:30:34.066Z,15.78
2023-03-31T23:33:00.958Z,15.82
2023-03-31T23:35:29.363Z,15.85
2023-03-31T23:37:56.387Z,15.86
2023-03-31T23:40:23.465Z,15.89
2023-03-31T23:42:50.464Z,15.90
2023-03-31T23:45:18.460Z,15.85
2023-03-31T23:47:45.414Z,15.86
2023-03-31T23:50:12.584Z,15.90
2023-03-31T23:52:40.901Z,15.90
2023-03-31T23:55:08.762Z,15.91
2023-03-31T23:57:35.910Z,15.92
